Time;durP1;ratioP1;P1;durP2;ratioP2;P2;SDS_P1;SDS_P2;PMS_P1;PMS_P2;Temp;Humidity;BMP_temperature;BMP_pressure;BME280_temperature;BME280_humidity;BME280_pressure;Samples;Min_cycle;Max_cycle;Signal;HPM_P1;HPM_P2
2023/07/27 00:00:19;;;;;;;1.90;1.50;;;13.80;99.90;;;;;;5020688;28;20220;-83
2023/07/27 00:02:45;;;;;;;2.27;1.60;;;13.90;99.90;;;;;;5038538;28;20269;-83
2023/07/27 00:05:12;;;;;;;1.70;1.50;;;14.00;1.00;;;;;;5038570;28;20198;-84
2023/07/27 00:07:38;;;;;;;2.40;1.57;;;14.10;1.00;;;;;;5020838;28;20175;-84
2023/07/27 00:10:04;;;;;;;1.90;1.67;;;14.10;1.00;;;;;;5038853;28;20185;-83
2023/07/27 00:12:30;;;;;;;2.43;1.63;;;14.10;1.00;;;;;;5021423;28;20601;-84
2023/07/27 00:14:55;;;;;;;1.70;1.60;;;14.10;1.00;;;;;;5020357;28;20213;-83
2023/07/27 00:17:21;;;;;;;1.90;1.77;;;14.10;99.90;;;;;;5021285;28;20269;-84
2023/07/27 00:19:47;;;;;;;2.30;1.50;;;14.00;99.90;;;;;;5038634;28;20174;-83
2023/07/27 00:22:12;;;;;;;1.80;1.60;;;14.10;99.90;;;;;;5038422;28;20177;-83
2023/07/27 00:24:38;;;;;;;2.23;1.77;;;14.00;99.90;;;;;;5038829;28;20206;-83
2023/07/27 00:27:04;;;;;;;2.30;1.50;;;14.00;99.90;;;;;;5020742;28;20248;-84
2023/07/27 00:29:29;;;;;;;2.67;1.63;;;14.00;99.90;;;;;;5020921;28;20279;-84
2023/07/27 00:31:55;;;;;;;1.87;1.50;;;14.00;99.90;;;;;;5021309;28;20178;-83
2023/07/27 00:34:21;;;;;;;2.53;1.60;;;14.00;99.90;;;;;;5021055;28;20198;-83
2023/07/27 00:36:46;;;;;;;1.73;1.40;;;14.00;99.90;;;;;;5021121;28;20174;-83
2023/07/27 00:39:12;;;;;;;2.47;1.50;;;14.00;99.90;;;;;;5021184;28;20206;-83
2023/07/27 00:41:43;;;;;;;1.70;1.60;;;14.00;1.00;;;;;;5021196;28;20189;-84
2023/07/27 00:44:09;;;;;;;1.80;1.60;;;14.00;1.00;;;;;;5021165;28;20221;-83
2023/07/27 00:46:36;;;;;;;2.17;1.63;;;14.00;99.90;;;;;;5020033;28;20210;-83
2023/07/27 00:49:03;;;;;;;2.33;1.40;;;14.00;99.90;;;;;;5019565;28;20320;-84
2023/07/27 00:51:42;;;;;;;3.17;1.60;;;14.10;99.90;;;;;;5018824;28;20229;-83
2023/07/27 00:54:10;;;;;;;1.90;1.57;;;14.10;99.90;;;;;;5020040;28;20229;-83
2023/07/27 00:56:37;;;;;;;1.97;1.47;;;14.10;99.90;;;;;;5037309;28;20272;-83
2023/07/27 00:59:04;;;;;;;2.60;1.70;;;14.10;99.90;;;;;;5019558;28;20182;-84
2023/07/27 01:01:29;;;;;;;1.90;1.60;;;14.10;99.90;;;;;;5019598;28;20190;-83
2023/07/27 01:03:55;;;;;;;1.63;1.50;;;14.20;1.00;;;;;;5018379;28;20198;-83
2023/07/27 01:06:22;;;;;;;2.23;1.60;;;14.20;99.90;;;;;;5037086;28;20285;-83
2023/07/27 01:08:48;;;;;;;2.50;1.70;;;14.20;99.90;;;;;;5037076;28;20171;-83
2023/07/27 01:11:31;;;;;;;1.80;1.50;;;14.20;99.90;;;;;;5019356;28;20246;-83
2023/07/27 01:14:07;;;;;;;2.20;1.67;;;14.20;99.90;;;;;;5018714;28;20283;-83
2023/07/27 01:16:55;;;;;;;3.63;1.80;;;14.20;99.90;;;;;;5019163;28;20177;-82
2023/07/27 01:19:40;;;;;;;1.93;1.60;;;14.20;73.40;;;;;;5019017;28;20194;-83
2023/07/27 01:22:16;;;;;;;2.57;1.77;;;14.30;99.90;;;;;;5018813;28;20645;-83
2023/07/27 01:25:07;;;;;;;2.37;1.70;;;14.30;74.10;;;;;;5037620;28;20224;-83
2023/07/27 01:27:55;;;;;;;1.60;1.50;;;14.20;51.10;;;;;;5018801;28;20196;-83
2023/07/27 01:30:24;;;;;;;1.93;1.40;;;14.20;99.90;;;;;;5019303;28;20182;-83
2023/07/27 01:32:59;;;;;;;2.23;1.70;;;14.30;1.00;;;;;;5036773;28;20190;-83
2023/07/27 01:35:31;;;;;;;2.23;1.50;;;14.20;1.00;;;;;;5018641;28;20229;-83
2023/07/27 01:37:59;;;;;;;2.70;1.80;;;14.20;99.90;;;;;;5036867;28;20166;-83
2023/07/27 01:40:25;;;;;;;2.83;1.80;;;14.20;99.90;;;;;;5018584;28;20194;-83
2023/07/27 01:42:52;;;;;;;2.80;1.80;;;14.20;73.70;;;;;;5018364;28;20183;-83
2023/07/27 01:45:18;;;;;;;3.80;1.60;;;14.30;94.60;;;;;;5036754;28;20206;-83
2023/07/27 01:47:45;;;;;;;2.43;1.67;;;14.30;1.00;;;;;;5019616;28;20174;-83
2023/07/27 01:50:13;;;;;;;2.70;1.77;;;14.20;99.90;;;;;;5018250;28;20166;-84
2023/07/27 01:52:39;;;;;;;2.10;1.83;;;14.20;97.90;;;;;;5018537;28;20166;-84
2023/07/27 01:55:07;;;;;;;2.80;1.73;;;14.30;1.00;;;;;;5017624;28;20543;-83
2023/07/27 01:57:34;;;;;;;1.80;1.63;;;14.30;92.70;;;;;;5036247;28;20175;-83
2023/07/27 02:00:01;;;;;;;3.07;1.80;;;14.30;1.00;;;;;;5035603;28;20170;-83
2023/07/27 02:02:27;;;;;;;1.70;1.60;;;14.40;1.00;;;;;;5017699;28;20174;-83
2023/07/27 02:04:56;;;;;;;2.50;1.50;;;14.40;1.00;;;;;;5036348;28;20204;-83
2023/07/27 02:07:22;;;;;;;1.90;1.70;;;14.40;1.00;;;;;;5036369;28;20257;-83
2023/07/27 02:09:47;;;;;;;2.80;1.53;;;14.40;1.00;;;;;;5015519;28;20269;-85
2023/07/27 02:12:23;;;;;;;1.67;1.30;;;14.40;1.00;;;;;;5016266;28;20265;-84
2023/07/27 02:15:03;;;;;;;1.63;1.40;;;14.40;1.00;;;;;;5034923;28;20308;-83
2023/07/27 02:17:39;;;;;;;2.40;1.40;;;14.40;1.00;;;;;;5017920;28;20178;-83
2023/07/27 02:20:10;;;;;;;1.50;1.20;;;14.40;1.00;;;;;;5035470;28;20224;-84
2023/07/27 02:22:37;;;;;;;1.30;1.20;;;14.40;1.00;;;;;;5036428;28;20189;-83
2023/07/27 02:25:04;;;;;;;3.30;1.80;;;14.40;1.00;;;;;;5017707;28;20226;-83
2023/07/27 02:27:29;;;;;;;2.53;1.50;;;14.40;1.00;;;;;;5017818;28;20220;-83
2023/07/27 02:29:55;;;;;;;3.90;1.43;;;14.40;1.00;;;;;;5017209;28;20178;-83
2023/07/27 02:32:21;;;;;;;2.50;1.57;;;14.40;1.00;;;;;;5018079;28;20227;-83
2023/07/27 02:34:46;;;;;;;3.33;1.60;;;14.40;1.00;;;;;;5017368;28;20660;-83
2023/07/27 02:37:12;;;;;;;3.77;1.83;;;14.30;1.00;;;;;;5035735;28;20197;-84
2023/07/27 02:39:37;;;;;;;4.40;1.50;;;14.30;1.00;;;;;;5017297;28;20280;-81
2023/07/27 02:42:03;;;;;;;1.33;1.23;;;14.30;38.20;;;;;;5017469;28;20185;-83
2023/07/27 02:44:28;;;;;;;1.73;1.60;;;14.30;41.70;;;;;;5035316;28;20194;-83
2023/07/27 02:46:54;;;;;;;1.57;1.37;;;14.30;99.90;;;;;;5035626;28;20210;-83
2023/07/27 02:49:20;;;;;;;3.00;1.70;;;14.30;1.00;;;;;;5035682;28;20182;-83
2023/07/27 02:51:45;;;;;;;4.07;1.67;;;14.30;1.00;;;;;;5035580;28;20162;-83
2023/07/27 02:54:11;;;;;;;1.90;1.50;;;14.30;1.00;;;;;;5017770;28;20289;-84
2023/07/27 02:56:36;;;;;;;7.10;2.03;;;14.30;1.00;;;;;;5035306;28;20194;-84
2023/07/27 02:59:02;;;;;;;2.27;1.30;;;14.30;1.00;;;;;;5017633;28;20179;-83
2023/07/27 03:01:28;;;;;;;1.60;1.40;;;14.40;1.00;;;;;;5017200;28;20725;-83
2023/07/27 03:03:53;;;;;;;1.70;1.50;;;14.30;1.00;;;;;;5035046;28;20266;-83
2023/07/27 03:06:19;;;;;;;2.33;1.67;;;14.30;1.00;;;;;;5034966;28;20293;-83
2023/07/27 03:08:44;;;;;;;1.57;1.33;;;14.40;1.00;;;;;;5017490;28;20174;-83
2023/07/27 03:11:10;;;;;;;5.00;1.53;;;14.30;1.00;;;;;;5017070;28;20239;-83
2023/07/27 03:13:35;;;;;;;2.63;1.40;;;14.40;1.00;;;;;;5017870;28;20205;-83
2023/07/27 03:16:05;;;;;;;1.53;1.40;;;14.40;1.00;;;;;;5020302;28;20210;-83
2023/07/27 03:18:30;;;;;;;1.30;1.20;;;14.40;1.00;;;;;;5020469;28;20559;-83
2023/07/27 03:20:56;;;;;;;2.03;1.27;;;14.40;1.00;;;;;;5038865;28;20660;-82
2023/07/27 03:23:22;;;;;;;2.03;1.30;;;14.40;1.00;;;;;;5038764;28;20201;-85
2023/07/27 03:25:47;;;;;;;3.20;1.30;;;14.40;1.00;;;;;;5021227;28;20320;-83
2023/07/27 03:28:13;;;;;;;2.00;1.40;;;14.40;1.00;;;;;;5021781;28;20205;-83
2023/07/27 03:30:39;;;;;;;2.10;1.40;;;14.40;1.00;;;;;;5021173;28;20598;-83
2023/07/27 03:33:06;;;;;;;3.40;1.70;;;14.40;1.00;;;;;;5020826;28;20198;-83
2023/07/27 03:35:32;;;;;;;1.93;1.40;;;14.50;1.00;;;;;;5038849;28;20171;-84
2023/07/27 03:37:58;;;;;;;2.47;1.70;;;14.50;1.00;;;;;;5021327;28;20174;-83
2023/07/27 03:40:23;;;;;;;1.77;1.60;;;14.50;34.90;;;;;;5038821;28;20263;-83
2023/07/27 03:42:49;;;;;;;2.23;1.60;;;14.50;1.00;;;;;;5020995;28;20189;-83
2023/07/27 03:45:15;;;;;;;2.07;1.60;;;14.50;1.00;;;;;;5020771;28;20198;-83
2023/07/27 03:47:44;;;;;;;3.57;1.60;;;14.50;1.00;;;;;;5039101;28;20261;-83
2023/07/27 03:50:10;;;;;;;2.23;1.40;;;14.50;1.00;;;;;;5038417;28;20183;-83
2023/07/27 03:52:36;;;;;;;1.77;1.63;;;14.50;1.00;;;;;;5039215;28;20637;-84
2023/07/27 03:55:03;;;;;;;1.93;1.30;;;14.50;1.00;;;;;;5020479;28;20240;-83
2023/07/27 03:57:28;;;;;;;3.07;1.60;;;14.50;16.30;;;;;;5020772;28;20182;-84
2023/07/27 03:59:55;;;;;;;1.70;1.40;;;14.40;99.90;;;;;;5020834;28;20216;-83
2023/07/27 04:02:22;;;;;;;2.10;1.43;;;14.40;99.90;;;;;;5038421;28;20675;-83
2023/07/27 04:04:48;;;;;;;1.70;1.37;;;14.40;99.90;;;;;;5038423;28;20569;-83
2023/07/27 04:07:13;;;;;;;2.70;1.50;;;14.40;99.90;;;;;;5038340;28;20212;-83
2023/07/27 04:09:39;;;;;;;2.07;1.50;;;14.40;99.90;;;;;;5038747;28;20340;-83
2023/07/27 04:12:05;;;;;;;1.60;1.40;;;14.50;99.90;;;;;;5020869;28;20607;-83
2023/07/27 04:14:31;;;;;;;2.00;1.63;;;14.50;99.90;;;;;;5044527;23;20258;-86
2023/07/27 04:16:56;;;;;;;2.70;1.57;;;14.50;99.90;;;;;;5033864;28;20247;-86
2023/07/27 04:19:22;;;;;;;2.63;1.70;;;14.50;99.90;;;;;;5033623;28;20265;-86
2023/07/27 04:21:48;;;;;;;3.20;1.70;;;14.60;99.90;;;;;;5034847;28;20555;-86
2023/07/27 04:24:13;;;;;;;2.03;1.83;;;14.60;99.90;;;;;;5033183;28;20198;-86
2023/07/27 04:26:39;;;;;;;4.60;1.57;;;14.60;99.90;;;;;;5034747;28;20213;-86
2023/07/27 04:29:04;;;;;;;2.20;1.43;;;14.50;99.90;;;;;;5033068;28;20186;-86
2023/07/27 04:31:30;;;;;;;2.37;1.60;;;14.60;1.00;;;;;;5034731;28;20171;-86
2023/07/27 04:33:55;;;;;;;2.37;1.50;;;14.60;99.90;;;;;;5033388;28;20186;-86
2023/07/27 04:36:21;;;;;;;1.60;1.50;;;14.60;99.90;;;;;;5033660;28;20201;-86
2023/07/27 04:38:46;;;;;;;1.83;1.50;;;14.60;99.90;;;;;;5033269;28;20174;-86
2023/07/27 04:41:12;;;;;;;4.60;1.70;;;14.60;99.90;;;;;;5034738;28;20278;-86
2023/07/27 04:43:37;;;;;;;2.03;1.70;;;14.70;99.90;;;;;;5033790;28;20193;-83
2023/07/27 04:46:03;;;;;;;2.70;1.50;;;14.70;99.90;;;;;;5033552;28;20255;-85
2023/07/27 04:48:28;;;;;;;1.87;1.60;;;14.70;99.90;;;;;;5033502;28;20209;-83
2023/07/27 04:50:54;;;;;;;1.97;1.60;;;14.70;99.90;;;;;;5034592;28;20166;-82
2023/07/27 04:53:20;;;;;;;1.77;1.53;;;14.70;1.00;;;;;;5034227;28;20175;-82
2023/07/27 04:55:46;;;;;;;1.50;1.40;;;14.70;1.00;;;;;;5035091;28;20198;-83
2023/07/27 04:58:12;;;;;;;2.30;1.70;;;14.70;99.90;;;;;;5034971;28;20251;-82
2023/07/27 05:00:37;;;;;;;1.40;1.30;;;14.70;99.90;;;;;;5034605;28;20197;-82
2023/07/27 05:03:03;;;;;;;2.17;1.40;;;14.70;1.00;;;;;;5034824;28;20175;-83
2023/07/27 05:05:28;;;;;;;1.77;1.50;;;14.80;1.00;;;;;;5035201;28;20198;-81
2023/07/27 05:07:54;;;;;;;2.70;1.53;;;14.80;1.00;;;;;;5034845;28;20625;-83
2023/07/27 05:10:19;;;;;;;2.83;1.40;;;14.80;1.00;;;;;;5033773;28;20177;-81
2023/07/27 05:12:45;;;;;;;2.40;1.83;;;14.90;1.00;;;;;;5035626;28;20687;-83
2023/07/27 05:15:11;;;;;;;3.20;2.37;;;14.90;99.90;;;;;;5033278;28;20252;-83
2023/07/27 05:17:36;;;;;;;1.77;1.53;;;14.90;99.90;;;;;;5034364;28;20645;-83
2023/07/27 05:20:02;;;;;;;2.97;1.50;;;14.90;1.00;;;;;;5035621;28;20181;-82
2023/07/27 05:22:28;;;;;;;1.80;1.63;;;14.90;1.00;;;;;;5034455;28;20183;-82
2023/07/27 05:24:53;;;;;;;1.63;1.50;;;14.90;1.00;;;;;;5033362;28;20194;-83
2023/07/27 05:27:19;;;;;;;3.10;1.60;;;15.00;1.00;;;;;;5032843;28;20213;-82
2023/07/27 05:29:44;;;;;;;2.23;1.63;;;15.00;1.00;;;;;;5034216;28;20178;-81
2023/07/27 05:32:10;;;;;;;1.87;1.50;;;15.00;1.00;;;;;;5034641;28;20180;-84
2023/07/27 05:34:35;;;;;;;2.80;1.60;;;15.00;1.00;;;;;;5034701;28;20190;-82
2023/07/27 05:37:01;;;;;;;1.97;1.50;;;15.00;1.00;;;;;;5032309;28;20189;-85
2023/07/27 05:39:28;;;;;;;1.93;1.60;;;15.00;1.00;;;;;;5034063;28;20200;-84
2023/07/27 05:41:54;;;;;;;2.50;1.50;;;15.00;1.00;;;;;;5033511;28;20182;-84
2023/07/27 05:44:20;;;;;;;1.60;1.50;;;15.00;1.00;;;;;;5033532;28;20285;-85
2023/07/27 05:46:46;;;;;;;2.03;1.60;;;15.00;1.00;;;;;;5033332;28;20696;-86
2023/07/27 05:49:12;;;;;;;2.50;1.47;;;15.00;20.60;;;;;;5032047;28;20178;-86
2023/07/27 05:51:37;;;;;;;2.47;2.17;;;15.00;99.70;;;;;;5031978;28;20256;-85
2023/07/27 05:54:03;;;;;;;2.13;1.70;;;15.10;99.90;;;;;;5033249;28;20202;-86
2023/07/27 05:56:29;;;;;;;1.83;1.67;;;15.00;99.90;;;;;;5032149;28;20182;-85
2023/07/27 05:58:54;;;;;;;2.70;1.57;;;15.00;99.90;;;;;;5031751;28;20241;-86
2023/07/27 06:01:20;;;;;;;1.97;1.63;;;15.00;99.90;;;;;;5031457;28;20178;-85
2023/07/27 06:03:46;;;;;;;2.23;2.03;;;15.00;99.90;;;;;;5031796;28;20174;-84
2023/07/27 06:06:12;;;;;;;2.40;1.73;;;15.00;99.90;;;;;;5031732;28;20699;-84
2023/07/27 06:08:37;;;;;;;3.40;1.80;;;14.90;99.90;;;;;;5031558;28;20185;-86
2023/07/27 06:11:09;;;;;;;1.90;1.43;;;14.80;99.90;;;;;;5031948;28;20269;-82
2023/07/27 06:13:35;;;;;;;2.17;1.80;;;14.80;99.90;;;;;;5031719;28;20178;-85
2023/07/27 06:16:01;;;;;;;2.40;1.37;;;14.70;99.90;;;;;;5030265;28;20195;-82
2023/07/27 06:18:26;;;;;;;2.13;1.73;;;14.70;99.90;;;;;;5026630;28;20181;-82
2023/07/27 06:20:52;;;;;;;1.70;1.60;;;14.70;99.90;;;;;;5032162;28;20216;-82
2023/07/27 06:23:18;;;;;;;2.70;2.00;;;14.70;99.90;;;;;;5031994;28;20187;-82
2023/07/27 06:25:44;;;;;;;3.33;1.60;;;14.70;99.90;;;;;;5032162;28;20244;-83
2023/07/27 06:28:10;;;;;;;2.43;1.90;;;14.70;99.90;;;;;;5033290;28;20558;-82
2023/07/27 06:30:38;;;;;;;2.07;1.70;;;14.60;99.90;;;;;;5033127;28;20613;-82
2023/07/27 06:33:04;;;;;;;2.20;2.00;;;14.60;99.90;;;;;;5032015;28;20201;-82
2023/07/27 06:35:29;;;;;;;3.27;1.90;;;14.50;99.90;;;;;;5032742;28;20232;-82
2023/07/27 06:37:55;;;;;;;2.50;1.83;;;14.50;99.90;;;;;;5031181;28;20182;-83
2023/07/27 06:40:20;;;;;;;3.07;1.90;;;14.60;99.90;;;;;;5031016;28;20217;-83
2023/07/27 06:42:46;;;;;;;2.57;1.80;;;14.60;99.90;;;;;;5031349;28;20182;-83
2023/07/27 06:45:11;;;;;;;3.90;2.27;;;14.60;99.90;;;;;;5031282;28;20201;-83
2023/07/27 06:47:37;;;;;;;24.73;4.10;;;14.60;99.90;;;;;;5032281;28;20185;-83
2023/07/27 06:50:03;;;;;;;2.63;2.07;;;14.60;99.90;;;;;;5032151;28;20178;-83
2023/07/27 06:52:29;;;;;;;3.23;2.00;;;14.60;99.90;;;;;;5032023;28;20244;-83
2023/07/27 06:54:54;;;;;;;2.60;2.00;;;14.70;99.90;;;;;;5030492;28;20194;-83
2023/07/27 06:57:20;;;;;;;2.40;1.90;;;14.60;99.90;;;;;;5030312;28;20190;-83
2023/07/27 06:59:46;;;;;;;2.20;1.90;;;14.60;99.90;;;;;;5032067;28;20174;-83
2023/07/27 07:02:11;;;;;;;3.33;2.13;;;14.70;99.90;;;;;;5031100;28;20174;-83
2023/07/27 07:04:37;;;;;;;2.30;1.90;;;14.70;99.90;;;;;;5032022;28;20194;-84
2023/07/27 07:07:03;;;;;;;2.20;1.83;;;14.70;99.90;;;;;;5033138;28;20727;-81
2023/07/27 07:09:32;;;;;;;2.70;2.07;;;14.70;99.90;;;;;;5029917;28;20213;-81
2023/07/27 07:11:58;;;;;;;2.47;1.80;;;14.60;99.90;;;;;;5031117;28;20170;-81
2023/07/27 07:14:24;;;;;;;2.60;1.90;;;14.60;99.90;;;;;;5032471;28;20594;-79
2023/07/27 07:16:50;;;;;;;3.33;2.27;;;14.60;99.90;;;;;;5032525;28;20177;-79
2023/07/27 07:19:16;;;;;;;2.57;2.00;;;14.60;99.90;;;;;;5032209;28;20221;-79
2023/07/27 07:21:41;;;;;;;2.57;2.10;;;14.60;99.90;;;;;;5031260;28;20178;-79
2023/07/27 07:24:07;;;;;;;2.37;2.10;;;14.60;99.90;;;;;;5032630;28;20202;-79
2023/07/27 07:26:33;;;;;;;2.43;1.70;;;14.50;99.90;;;;;;5027564;28;20202;-78
2023/07/27 07:28:58;;;;;;;3.57;2.33;;;14.60;99.90;;;;;;5027096;28;20278;-79
2023/07/27 07:31:24;;;;;;;3.00;2.07;;;14.50;99.90;;;;;;5030277;28;20163;-79
2023/07/27 07:33:50;;;;;;;2.40;2.17;;;14.50;99.90;;;;;;5031572;28;20167;-79
2023/07/27 07:36:15;;;;;;;2.40;2.00;;;14.60;99.90;;;;;;5030439;28;20261;-78
2023/07/27 07:38:41;;;;;;;3.63;2.10;;;14.60;99.90;;;;;;5030352;28;20274;-74
2023/07/27 07:41:07;;;;;;;2.80;2.40;;;14.70;99.90;;;;;;5029777;28;20213;-79
2023/07/27 07:43:32;;;;;;;3.07;2.03;;;14.70;99.90;;;;;;5031548;28;20649;-82
2023/07/27 07:45:58;;;;;;;2.93;2.20;;;14.60;99.90;;;;;;5030768;28;20209;-79
2023/07/27 07:48:23;;;;;;;3.77;2.20;;;14.60;99.90;;;;;;5031688;28;20170;-79
2023/07/27 07:50:51;;;;;;;3.77;2.20;;;14.50;99.90;;;;;;5031732;28;20170;-79
2023/07/27 07:53:17;;;;;;;2.47;2.27;;;14.50;99.90;;;;;;5032008;28;20191;-80
2023/07/27 07:55:42;;;;;;;2.40;1.97;;;14.50;99.90;;;;;;5031168;28;20224;-80
2023/07/27 07:58:08;;;;;;;2.20;2.00;;;14.60;99.90;;;;;;5030677;28;20668;-79
2023/07/27 08:00:33;;;;;;;3.70;2.27;;;14.70;99.90;;;;;;5032513;28;20185;-79
2023/07/27 08:02:59;;;;;;;2.57;2.10;;;14.80;99.90;;;;;;5034957;28;20184;-81
2023/07/27 08:05:25;;;;;;;3.20;2.50;;;14.80;99.90;;;;;;5034118;28;20202;-79
2023/07/27 08:07:50;;;;;;;4.23;2.10;;;14.90;99.90;;;;;;5034196;28;20545;-79
2023/07/27 08:10:16;;;;;;;2.70;2.20;;;14.90;99.90;;;;;;5035275;28;20166;-84
2023/07/27 08:12:41;;;;;;;2.80;2.30;;;14.90;99.90;;;;;;5033901;28;20170;-85
2023/07/27 08:15:07;;;;;;;2.87;2.53;;;14.90;99.90;;;;;;5033571;28;20308;-85
2023/07/27 08:17:33;;;;;;;3.50;2.70;;;14.90;99.90;;;;;;5034125;28;20166;-80
2023/07/27 08:19:59;;;;;;;3.47;2.10;;;14.90;99.90;;;;;;5035877;28;20183;-81
2023/07/27 08:22:24;;;;;;;2.73;2.30;;;14.90;99.90;;;;;;5036173;28;20179;-82
2023/07/27 08:24:50;;;;;;;2.97;2.10;;;15.00;99.90;;;;;;5035698;28;20218;-84
2023/07/27 08:27:18;;;;;;;2.67;2.10;;;15.00;99.90;;;;;;5033893;28;20630;-84
2023/07/27 08:29:43;;;;;;;3.33;2.40;;;15.00;99.90;;;;;;5021027;28;20179;-82
2023/07/27 08:32:09;;;;;;;3.37;2.20;;;15.00;99.90;;;;;;5028906;28;20178;-86
2023/07/27 08:34:34;;;;;;;3.07;2.20;;;15.00;99.90;;;;;;5030693;28;20197;-84
2023/07/27 08:37:01;;;;;;;3.77;2.30;;;15.10;99.90;;;;;;5033839;28;20234;-84
2023/07/27 08:39:26;;;;;;;2.87;2.23;;;15.10;99.90;;;;;;5034277;28;20186;-81
2023/07/27 08:41:52;;;;;;;2.13;1.93;;;15.10;99.90;;;;;;5034112;28;20642;-82
2023/07/27 08:44:18;;;;;;;2.10;1.73;;;15.20;99.90;;;;;;5035155;28;20206;-83
2023/07/27 08:46:45;;;;;;;2.40;2.07;;;15.20;99.90;;;;;;5033830;28;20202;-82
2023/07/27 08:49:14;;;;;;;3.10;2.00;;;15.20;99.90;;;;;;5033760;28;20171;-81
2023/07/27 08:51:43;;;;;;;2.70;1.80;;;15.20;99.90;;;;;;5034717;28;20248;-80
2023/07/27 08:54:09;;;;;;;2.53;2.33;;;15.30;99.90;;;;;;5034978;28;20198;-84
2023/07/27 08:56:35;;;;;;;2.10;1.90;;;15.30;99.90;;;;;;5033310;28;20185;-80
2023/07/27 08:59:01;;;;;;;2.37;2.10;;;15.30;99.90;;;;;;5035452;28;20185;-82
2023/07/27 09:01:27;;;;;;;2.63;1.80;;;15.30;99.90;;;;;;5032747;28;20194;-81
2023/07/27 09:03:52;;;;;;;3.13;1.93;;;15.40;99.90;;;;;;5035029;28;20655;-80
2023/07/27 09:06:39;;;;;;;2.57;2.10;;;15.40;99.90;;;;;;5034741;28;20202;-83
2023/07/27 09:09:20;;;;;;;2.97;2.00;;;15.30;99.90;;;;;;5035445;28;20709;-82
2023/07/27 09:11:46;;;;;;;5.63;2.00;;;15.30;99.90;;;;;;5033151;28;20184;-86
2023/07/27 09:14:18;;;;;;;2.53;2.30;;;15.20;99.90;;;;;;5033082;28;20209;-83
2023/07/27 09:16:44;;;;;;;2.97;2.00;;;15.20;99.90;;;;;;5033218;28;20178;-82
2023/07/27 09:19:11;;;;;;;2.53;1.70;;;15.00;99.90;;;;;;5033112;28;20175;-79
2023/07/27 09:21:42;;;;;;;4.33;2.40;;;15.10;99.90;;;;;;5030392;28;20183;-81
2023/07/27 09:24:15;;;;;;;3.40;2.10;;;15.00;99.90;;;;;;5033566;28;20243;-81
2023/07/27 09:26:53;;;;;;;2.93;1.80;;;15.00;99.90;;;;;;5035194;28;20190;-81
2023/07/27 09:29:20;;;;;;;4.00;1.90;;;15.00;99.90;;;;;;5033558;28;20264;-81
2023/07/27 09:31:48;;;;;;;2.57;2.00;;;14.90;99.90;;;;;;5032976;28;20209;-84
2023/07/27 09:34:15;;;;;;;3.30;2.43;;;14.80;99.90;;;;;;5033497;28;20560;-86
2023/07/27 09:36:40;;;;;;;4.37;2.90;;;14.90;99.90;;;;;;5033459;28;20182;-84
2023/07/27 09:39:06;;;;;;;4.67;2.90;;;15.00;99.90;;;;;;5032191;28;20675;-83
2023/07/27 09:41:32;;;;;;;3.37;2.43;;;15.00;99.90;;;;;;5032037;28;20232;-84
2023/07/27 09:43:58;;;;;;;6.20;2.70;;;15.00;99.90;;;;;;5033588;28;20198;-83
2023/07/27 09:46:24;;;;;;;3.20;2.57;;;14.90;99.90;;;;;;5033468;28;20665;-84
2023/07/27 09:48:51;;;;;;;3.03;2.57;;;14.90;99.90;;;;;;5033384;28;20260;-82
2023/07/27 09:51:18;;;;;;;5.00;3.10;;;14.80;99.90;;;;;;5033425;28;20529;-83
2023/07/27 09:53:44;;;;;;;3.23;2.63;;;14.80;99.90;;;;;;5033323;28;20185;-85
2023/07/27 09:56:12;;;;;;;3.60;2.60;;;14.80;99.90;;;;;;5031718;28;20182;-86
2023/07/27 09:58:39;;;;;;;3.50;2.80;;;14.60;99.90;;;;;;5031916;28;20187;-84
2023/07/27 10:01:05;;;;;;;4.10;2.93;;;14.70;99.90;;;;;;5031614;28;20178;-86
2023/07/27 10:03:31;;;;;;;3.37;3.00;;;14.80;99.90;;;;;;5031989;28;20224;-81
2023/07/27 10:05:57;;;;;;;4.23;3.03;;;14.70;99.90;;;;;;5032138;28;20244;-82
2023/07/27 10:08:24;;;;;;;3.30;2.73;;;14.70;99.90;;;;;;5033185;28;20195;-82
2023/07/27 10:10:53;;;;;;;3.20;2.63;;;14.60;99.90;;;;;;5031847;28;20178;-83
2023/07/27 10:13:22;;;;;;;3.27;2.40;;;14.70;99.90;;;;;;5031721;28;20261;-83
2023/07/27 10:15:49;;;;;;;2.67;2.47;;;14.70;99.90;;;;;;5032962;28;20214;-82
2023/07/27 10:18:15;;;;;;;3.87;2.80;;;14.70;99.90;;;;;;5032670;28;20181;-81
2023/07/27 10:20:41;;;;;;;3.03;2.60;;;14.80;99.90;;;;;;5032809;28;20166;-81
2023/07/27 10:23:17;;;;;;;3.37;2.40;;;14.80;99.90;;;;;;5032902;28;20175;-81
2023/07/27 10:25:55;;;;;;;3.20;2.30;;;14.80;99.90;;;;;;5032589;28;20193;-81
2023/07/27 10:28:47;;;;;;;3.00;2.33;;;14.80;99.90;;;;;;5033351;28;20162;-81
2023/07/27 10:31:19;;;;;;;2.50;2.30;;;14.80;99.90;;;;;;5034850;28;20174;-81
2023/07/27 10:33:46;;;;;;;3.20;2.10;;;14.80;99.90;;;;;;5034050;28;20228;-84
2023/07/27 10:36:13;;;;;;;2.43;2.23;;;14.80;99.90;;;;;;5031246;28;20170;-84
2023/07/27 10:38:38;;;;;;;2.33;2.10;;;14.80;99.90;;;;;;5033048;28;20170;-80
2023/07/27 10:41:14;;;;;;;2.10;1.90;;;14.80;99.90;;;;;;5033171;28;20253;-80
2023/07/27 10:44:08;;;;;;;2.37;1.77;;;14.80;99.90;;;;;;5032504;28;20182;-81
2023/07/27 10:46:38;;;;;;;2.03;1.83;;;14.90;99.90;;;;;;5031706;28;20198;-81
2023/07/27 10:49:17;;;;;;;1.90;1.70;;;14.90;99.90;;;;;;5025663;28;20159;-80
2023/07/27 10:51:45;;;;;;;1.70;1.60;;;14.90;99.90;;;;;;5030912;28;20220;-86
2023/07/27 10:54:12;;;;;;;2.30;1.40;;;14.80;99.90;;;;;;5031996;28;20186;-82
2023/07/27 10:56:38;;;;;;;2.00;1.67;;;14.80;99.90;;;;;;5032051;28;20208;-81
2023/07/27 10:59:04;;;;;;;1.90;1.53;;;14.70;99.90;;;;;;5031103;28;20196;-82
2023/07/27 11:01:32;;;;;;;2.23;1.50;;;14.80;99.90;;;;;;5030860;28;20224;-82
2023/07/27 11:03:58;;;;;;;1.50;1.40;;;14.70;99.90;;;;;;5032205;28;20240;-80
2023/07/27 11:06:27;;;;;;;1.47;1.37;;;14.70;99.90;;;;;;5031513;28;20178;-81
2023/07/27 11:08:56;;;;;;;1.57;1.40;;;14.70;99.90;;;;;;5032791;28;20232;-81
2023/07/27 11:11:29;;;;;;;1.67;1.50;;;14.70;99.90;;;;;;5032586;28;20257;-81
2023/07/27 11:14:04;;;;;;;1.60;1.50;;;14.70;99.90;;;;;;5031650;28;20182;-81
2023/07/27 11:16:30;;;;;;;2.63;1.60;;;14.70;99.90;;;;;;5031773;28;20294;-81
2023/07/27 11:18:55;;;;;;;3.67;1.63;;;14.70;99.90;;;;;;5032845;28;20223;-81
2023/07/27 11:21:21;;;;;;;1.60;1.50;;;14.80;99.90;;;;;;5032628;28;20170;-86
2023/07/27 11:23:47;;;;;;;2.10;1.60;;;14.70;99.90;;;;;;5032451;28;20643;-81
2023/07/27 11:26:13;;;;;;;1.67;1.50;;;14.80;99.90;;;;;;5031051;28;20559;-81
2023/07/27 11:28:42;;;;;;;2.27;1.70;;;14.80;99.90;;;;;;5032611;28;20181;-82
2023/07/27 11:31:08;;;;;;;1.90;1.67;;;14.80;99.90;;;;;;5032625;28;20184;-81
2023/07/27 11:33:38;;;;;;;1.90;1.80;;;14.90;99.90;;;;;;5030893;28;20185;-77
2023/07/27 11:36:07;;;;;;;1.60;1.47;;;14.90;99.90;;;;;;5034920;28;20206;-79
2023/07/27 11:38:33;;;;;;;1.90;1.80;;;14.90;99.90;;;;;;5037286;28;20209;-80
2023/07/27 11:40:59;;;;;;;1.90;1.80;;;14.90;99.90;;;;;;5035577;28;20202;-80
2023/07/27 11:43:25;;;;;;;1.60;1.50;;;14.90;99.90;;;;;;5036941;28;20179;-80
2023/07/27 11:45:55;;;;;;;2.20;1.33;;;14.90;99.90;;;;;;5035184;28;20225;-79
2023/07/27 11:48:28;;;;;;;1.83;1.63;;;14.90;99.90;;;;;;5035558;28;20179;-80
2023/07/27 11:50:58;;;;;;;1.60;1.37;;;14.90;99.90;;;;;;5035287;28;20633;-79
2023/07/27 11:53:26;;;;;;;2.37;2.07;;;14.90;99.90;;;;;;5035532;28;20174;-80
2023/07/27 11:55:52;;;;;;;2.33;2.10;;;15.00;99.90;;;;;;5036682;28;20217;-80
2023/07/27 11:58:18;;;;;;;3.07;1.87;;;15.00;99.90;;;;;;5036636;28;20171;-81
2023/07/27 12:00:50;;;;;;;2.00;1.70;;;15.10;99.90;;;;;;5023622;28;20179;-80
2023/07/27 12:03:20;;;;;;;1.90;1.50;;;15.10;99.90;;;;;;5016561;28;20592;-80
2023/07/27 12:05:46;;;;;;;1.73;1.63;;;15.20;99.90;;;;;;5016279;28;20282;-80
2023/07/27 12:08:18;;;;;;;2.27;1.90;;;15.20;99.90;;;;;;5015374;28;20270;-80
2023/07/27 12:10:55;;;;;;;2.50;1.50;;;15.30;99.90;;;;;;5015799;28;20187;-80
2023/07/27 12:13:22;;;;;;;1.87;1.60;;;15.30;99.90;;;;;;5014721;28;20183;-79
2023/07/27 12:15:57;;;;;;;2.23;1.70;;;15.40;99.90;;;;;;5015623;28;20218;-79
2023/07/27 12:18:27;;;;;;;2.17;1.77;;;15.40;99.90;;;;;;5015699;28;20167;-80
2023/07/27 12:20:54;;;;;;;2.87;1.57;;;15.50;99.90;;;;;;5016242;28;20169;-82
2023/07/27 12:23:20;;;;;;;2.70;1.87;;;15.50;99.90;;;;;;5015885;28;20175;-81
2023/07/27 12:25:48;;;;;;;1.83;1.70;;;15.60;99.90;;;;;;5014505;28;20195;-80
2023/07/27 12:28:14;;;;;;;2.53;1.80;;;15.60;99.90;;;;;;5016093;28;20249;-80
2023/07/27 12:30:40;;;;;;;1.90;1.60;;;15.60;99.90;;;;;;5015898;28;20179;-80
2023/07/27 12:33:06;;;;;;;2.33;1.70;;;15.60;99.90;;;;;;5015503;28;20232;-81
2023/07/27 12:35:31;;;;;;;1.93;1.73;;;15.60;99.90;;;;;;5015559;28;20198;-80
2023/07/27 12:38:00;;;;;;;1.70;1.40;;;15.60;99.90;;;;;;5016078;28;20735;-80
2023/07/27 12:40:26;;;;;;;1.53;1.40;;;15.60;99.90;;;;;;5015598;28;20309;-81
2023/07/27 12:42:52;;;;;;;1.50;1.40;;;15.50;99.90;;;;;;5015777;28;20195;-81
2023/07/27 12:45:20;;;;;;;1.67;1.37;;;15.50;99.90;;;;;;5015251;28;20300;-81
2023/07/27 12:47:47;;;;;;;1.73;1.63;;;15.60;99.90;;;;;;5014398;28;20175;-81
2023/07/27 12:50:13;;;;;;;2.10;1.30;;;15.60;99.90;;;;;;5015294;28;20191;-80